sensor_id;sensor_type;location;lat;lon;timestamp;P1;durP1;ratioP1;P2;durP2;ratioP2
56343;SDS011;42245;42.058;24.700;2023-05-07T00:01:12;8.07;;;5.47;;
56343;SDS011;42245;42.058;24.700;2023-05-07T00:03:37;12.32;;;5.43;;
56343;SDS011;42245;42.058;24.700;2023-05-07T00:06:04;7.63;;;5.00;;
56343;SDS011;42245;42.058;24.700;2023-05-07T00:08:29;8.98;;;5.25;;
56343;SDS011;42245;42.058;24.700;2023-05-07T00:10:55;9.75;;;5.53;;
56343;SDS011;42245;42.058;24.700;2023-05-07T00:13:20;7.00;;;5.07;;
56343;SDS011;42245;42.058;24.700;2023-05-07T00:15:45;11.38;;;6.00;;
56343;SDS011;42245;42.058;24.700;2023-05-07T00:18:11;8.98;;;5.78;;
56343;SDS011;42245;42.058;24.700;2023-05-07T00:20:36;9.10;;;5.55;;
56343;SDS011;42245;42.058;24.700;2023-05-07T00:23:02;9.25;;;5.72;;
56343;SDS011;42245;42.058;24.700;2023-05-07T00:25:27;8.40;;;5.90;;
56343;SDS011;42245;42.058;24.700;2023-05-07T00:27:53;12.30;;;5.63;;
56343;SDS011;42245;42.058;24.700;2023-05-07T00:30:18;9.18;;;6.40;;
56343;SDS011;42245;42.058;24.700;2023-05-07T00:32:44;10.02;;;6.30;;
56343;SDS011;42245;42.058;24.700;2023-05-07T00:35:13;8.77;;;6.18;;
56343;SDS011;42245;42.058;24.700;2023-05-07T00:37:39;8.73;;;6.22;;
56343;SDS011;42245;42.058;24.700;2023-05-07T00:40:05;11.00;;;6.53;;
56343;SDS011;42245;42.058;24.700;2023-05-07T00:42:32;9.30;;;6.75;;
56343;SDS011;42245;42.058;24.700;2023-05-07T00:44:58;9.10;;;6.93;;
56343;SDS011;42245;42.058;24.700;2023-05-07T00:47:24;9.45;;;6.85;;
56343;SDS011;42245;42.058;24.700;2023-05-07T00:49:50;7.95;;;6.53;;
56343;SDS011;42245;42.058;24.700;2023-05-07T00:52:16;7.13;;;6.43;;
56343;SDS011;42245;42.058;24.700;2023-05-07T00:54:42;8.88;;;6.93;;
56343;SDS011;42245;42.058;24.700;2023-05-07T00:57:11;7.75;;;6.80;;
56343;SDS011;42245;42.058;24.700;2023-05-07T00:59:36;9.48;;;6.88;;
56343;SDS011;42245;42.058;24.700;2023-05-07T01:02:02;9.98;;;7.00;;
56343;SDS011;42245;42.058;24.700;2023-05-07T01:04:28;10.80;;;6.88;;
56343;SDS011;42245;42.058;24.700;2023-05-07T01:06:55;8.45;;;6.70;;
56343;SDS011;42245;42.058;24.700;2023-05-07T01:09:21;8.80;;;7.72;;
56343;SDS011;42245;42.058;24.700;2023-05-07T01:11:47;9.13;;;7.28;;
56343;SDS011;42245;42.058;24.700;2023-05-07T01:14:14;8.85;;;7.50;;
56343;SDS011;42245;42.058;24.700;2023-05-07T01:16:40;11.82;;;7.82;;
56343;SDS011;42245;42.058;24.700;2023-05-07T01:19:06;11.90;;;7.78;;
56343;SDS011;42245;42.058;24.700;2023-05-07T01:21:33;8.15;;;7.18;;
56343;SDS011;42245;42.058;24.700;2023-05-07T01:24:02;11.27;;;7.57;;
56343;SDS011;42245;42.058;24.700;2023-05-07T01:26:27;11.63;;;7.43;;
56343;SDS011;42245;42.058;24.700;2023-05-07T01:28:53;9.13;;;7.18;;
56343;SDS011;42245;42.058;24.700;2023-05-07T01:31:18;11.23;;;7.47;;
56343;SDS011;42245;42.058;24.700;2023-05-07T01:33:44;8.38;;;7.10;;
56343;SDS011;42245;42.058;24.700;2023-05-07T01:36:10;10.38;;;7.18;;
56343;SDS011;42245;42.058;24.700;2023-05-07T01:38:37;9.40;;;7.32;;
56343;SDS011;42245;42.058;24.700;2023-05-07T01:41:02;7.25;;;6.47;;
56343;SDS011;42245;42.058;24.700;2023-05-07T01:43:28;10.02;;;6.97;;
56343;SDS011;42245;42.058;24.700;2023-05-07T01:45:55;8.13;;;6.88;;
56343;SDS011;42245;42.058;24.700;2023-05-07T01:48:20;9.18;;;7.47;;
56343;SDS011;42245;42.058;24.700;2023-05-07T01:50:46;8.90;;;7.55;;
56343;SDS011;42245;42.058;24.700;2023-05-07T01:53:12;9.73;;;7.82;;
56343;SDS011;42245;42.058;24.700;2023-05-07T01:55:37;8.63;;;7.72;;
56343;SDS011;42245;42.058;24.700;2023-05-07T01:58:03;10.18;;;7.30;;
56343;SDS011;42245;42.058;24.700;2023-05-07T02:00:29;11.18;;;7.28;;
56343;SDS011;42245;42.058;24.700;2023-05-07T02:02:54;9.27;;;7.32;;
56343;SDS011;42245;42.058;24.700;2023-05-07T02:05:20;10.75;;;8.00;;
56343;SDS011;42245;42.058;24.700;2023-05-07T02:07:46;9.10;;;7.60;;
56343;SDS011;42245;42.058;24.700;2023-05-07T02:10:11;10.32;;;8.15;;
56343;SDS011;42245;42.058;24.700;2023-05-07T02:12:37;10.32;;;8.35;;
56343;SDS011;42245;42.058;24.700;2023-05-07T02:15:02;12.18;;;8.30;;
56343;SDS011;42245;42.058;24.700;2023-05-07T02:17:29;10.57;;;7.85;;
56343;SDS011;42245;42.058;24.700;2023-05-07T02:19:56;10.07;;;8.05;;
56343;SDS011;42245;42.058;24.700;2023-05-07T02:22:22;9.55;;;7.80;;
56343;SDS011;42245;42.058;24.700;2023-05-07T02:24:48;11.57;;;7.95;;
56343;SDS011;42245;42.058;24.700;2023-05-07T02:27:14;11.63;;;7.93;;
56343;SDS011;42245;42.058;24.700;2023-05-07T02:29:39;8.90;;;8.00;;
56343;SDS011;42245;42.058;24.700;2023-05-07T02:32:05;11.90;;;8.10;;
56343;SDS011;42245;42.058;24.700;2023-05-07T02:34:30;12.05;;;7.97;;
56343;SDS011;42245;42.058;24.700;2023-05-07T02:36:55;10.85;;;8.52;;
56343;SDS011;42245;42.058;24.700;2023-05-07T02:39:21;10.98;;;8.57;;
56343;SDS011;42245;42.058;24.700;2023-05-07T02:41:47;11.32;;;9.07;;
56343;SDS011;42245;42.058;24.700;2023-05-07T02:44:12;13.02;;;8.75;;
56343;SDS011;42245;42.058;24.700;2023-05-07T02:46:38;10.60;;;8.95;;
56343;SDS011;42245;42.058;24.700;2023-05-07T02:49:03;10.55;;;8.50;;
56343;SDS011;42245;42.058;24.700;2023-05-07T02:51:29;14.05;;;9.13;;
56343;SDS011;42245;42.058;24.700;2023-05-07T02:53:55;10.60;;;8.88;;
56343;SDS011;42245;42.058;24.700;2023-05-07T02:56:21;13.32;;;8.82;;
56343;SDS011;42245;42.058;24.700;2023-05-07T02:58:46;14.25;;;9.00;;
56343;SDS011;42245;42.058;24.700;2023-05-07T03:01:12;13.10;;;9.02;;
56343;SDS011;42245;42.058;24.700;2023-05-07T03:03:39;11.82;;;8.90;;
56343;SDS011;42245;42.058;24.700;2023-05-07T03:06:04;11.60;;;9.23;;
56343;SDS011;42245;42.058;24.700;2023-05-07T03:08:30;17.98;;;9.13;;
56343;SDS011;42245;42.058;24.700;2023-05-07T03:10:55;14.73;;;10.18;;
56343;SDS011;42245;42.058;24.700;2023-05-07T03:13:21;13.85;;;9.23;;
56343;SDS011;42245;42.058;24.700;2023-05-07T03:15:46;14.00;;;9.48;;
56343;SDS011;42245;42.058;24.700;2023-05-07T03:18:12;15.90;;;10.18;;
56343;SDS011;42245;42.058;24.700;2023-05-07T03:20:37;13.60;;;9.73;;
56343;SDS011;42245;42.058;24.700;2023-05-07T03:23:03;15.05;;;9.88;;
56343;SDS011;42245;42.058;24.700;2023-05-07T03:25:28;12.40;;;10.30;;
56343;SDS011;42245;42.058;24.700;2023-05-07T03:27:55;13.23;;;9.55;;
56343;SDS011;42245;42.058;24.700;2023-05-07T03:30:21;13.73;;;10.60;;
56343;SDS011;42245;42.058;24.700;2023-05-07T03:32:46;12.88;;;9.32;;
56343;SDS011;42245;42.058;24.700;2023-05-07T03:35:12;12.90;;;9.52;;
56343;SDS011;42245;42.058;24.700;2023-05-07T03:37:37;14.57;;;9.50;;
56343;SDS011;42245;42.058;24.700;2023-05-07T03:40:04;12.25;;;9.63;;
56343;SDS011;42245;42.058;24.700;2023-05-07T03:42:30;10.50;;;8.90;;
56343;SDS011;42245;42.058;24.700;2023-05-07T03:44:55;11.95;;;10.38;;
56343;SDS011;42245;42.058;24.700;2023-05-07T03:47:21;13.10;;;9.23;;
56343;SDS011;42245;42.058;24.700;2023-05-07T03:49:46;13.05;;;8.95;;
56343;SDS011;42245;42.058;24.700;2023-05-07T03:52:13;10.93;;;8.60;;
56343;SDS011;42245;42.058;24.700;2023-05-07T03:54:38;11.30;;;8.20;;
56343;SDS011;42245;42.058;24.700;2023-05-07T03:57:04;16.20;;;8.55;;
56343;SDS011;42245;42.058;24.700;2023-05-07T03:59:29;9.98;;;8.48;;
56343;SDS011;42245;42.058;24.700;2023-05-07T04:01:55;11.40;;;8.23;;
56343;SDS011;42245;42.058;24.700;2023-05-07T04:04:20;11.85;;;8.18;;
56343;SDS011;42245;42.058;24.700;2023-05-07T04:06:46;8.80;;;7.90;;
56343;SDS011;42245;42.058;24.700;2023-05-07T04:09:11;11.48;;;7.70;;
56343;SDS011;42245;42.058;24.700;2023-05-07T04:11:37;10.20;;;7.88;;
56343;SDS011;42245;42.058;24.700;2023-05-07T04:14:05;10.88;;;7.30;;
56343;SDS011;42245;42.058;24.700;2023-05-07T04:16:30;8.02;;;7.22;;
56343;SDS011;42245;42.058;24.700;2023-05-07T04:18:56;11.75;;;7.10;;
56343;SDS011;42245;42.058;24.700;2023-05-07T04:21:21;10.23;;;7.05;;
56343;SDS011;42245;42.058;24.700;2023-05-07T04:23:47;9.63;;;6.70;;
56343;SDS011;42245;42.058;24.700;2023-05-07T04:26:13;8.15;;;6.60;;
56343;SDS011;42245;42.058;24.700;2023-05-07T04:28:39;14.60;;;6.50;;
56343;SDS011;42245;42.058;24.700;2023-05-07T04:31:05;8.55;;;6.60;;
56343;SDS011;42245;42.058;24.700;2023-05-07T04:33:31;10.45;;;6.53;;
56343;SDS011;42245;42.058;24.700;2023-05-07T04:35:58;8.48;;;6.07;;
56343;SDS011;42245;42.058;24.700;2023-05-07T04:38:28;6.80;;;6.13;;
56343;SDS011;42245;42.058;24.700;2023-05-07T04:40:54;12.50;;;6.07;;
56343;SDS011;42245;42.058;24.700;2023-05-07T04:43:20;8.00;;;5.90;;
56343;SDS011;42245;42.058;24.700;2023-05-07T04:45:45;8.95;;;6.40;;
56343;SDS011;42245;42.058;24.700;2023-05-07T04:48:11;7.82;;;5.75;;
56343;SDS011;42245;42.058;24.700;2023-05-07T04:50:36;7.97;;;5.75;;
56343;SDS011;42245;42.058;24.700;2023-05-07T04:53:01;8.70;;;6.88;;
56343;SDS011;42245;42.058;24.700;2023-05-07T04:55:28;12.63;;;7.60;;
56343;SDS011;42245;42.058;24.700;2023-05-07T04:57:53;10.70;;;8.15;;
56343;SDS011;42245;42.058;24.700;2023-05-07T05:00:19;8.65;;;7.28;;
56343;SDS011;42245;42.058;24.700;2023-05-07T05:02:45;10.82;;;7.82;;
56343;SDS011;42245;42.058;24.700;2023-05-07T05:05:10;13.75;;;8.93;;
56343;SDS011;42245;42.058;24.700;2023-05-07T05:07:36;12.77;;;8.25;;
56343;SDS011;42245;42.058;24.700;2023-05-07T05:10:02;15.60;;;8.23;;
56343;SDS011;42245;42.058;24.700;2023-05-07T05:12:28;14.27;;;9.60;;
56343;SDS011;42245;42.058;24.700;2023-05-07T05:14:54;11.15;;;8.30;;
56343;SDS011;42245;42.058;24.700;2023-05-07T05:17:20;13.02;;;7.15;;
56343;SDS011;42245;42.058;24.700;2023-05-07T05:19:45;9.50;;;7.40;;
56343;SDS011;42245;42.058;24.700;2023-05-07T05:22:11;9.63;;;7.15;;
56343;SDS011;42245;42.058;24.700;2023-05-07T05:24:36;10.00;;;7.30;;
56343;SDS011;42245;42.058;24.700;2023-05-07T05:27:01;12.15;;;7.47;;
56343;SDS011;42245;42.058;24.700;2023-05-07T05:29:27;12.70;;;7.55;;
56343;SDS011;42245;42.058;24.700;2023-05-07T05:31:53;9.20;;;7.18;;
56343;SDS011;42245;42.058;24.700;2023-05-07T05:34:18;13.25;;;7.38;;
56343;SDS011;42245;42.058;24.700;2023-05-07T05:36:47;9.68;;;7.38;;
56343;SDS011;42245;42.058;24.700;2023-05-07T05:39:12;12.13;;;8.13;;
56343;SDS011;42245;42.058;24.700;2023-05-07T05:41:38;8.75;;;7.72;;
56343;SDS011;42245;42.058;24.700;2023-05-07T05:44:03;11.43;;;8.13;;
56343;SDS011;42245;42.058;24.700;2023-05-07T05:46:29;10.60;;;7.72;;
56343;SDS011;42245;42.058;24.700;2023-05-07T05:48:54;10.10;;;7.40;;
56343;SDS011;42245;42.058;24.700;2023-05-07T05:51:20;9.40;;;6.97;;
56343;SDS011;42245;42.058;24.700;2023-05-07T05:53:46;13.57;;;8.18;;
56343;SDS011;42245;42.058;24.700;2023-05-07T05:56:11;15.30;;;7.97;;
56343;SDS011;42245;42.058;24.700;2023-05-07T05:58:37;10.00;;;8.27;;
56343;SDS011;42245;42.058;24.700;2023-05-07T06:01:02;16.05;;;8.10;;
56343;SDS011;42245;42.058;24.700;2023-05-07T06:03:28;8.80;;;7.40;;
56343;SDS011;42245;42.058;24.700;2023-05-07T06:05:53;9.52;;;7.43;;
56343;SDS011;42245;42.058;24.700;2023-05-07T06:08:19;11.85;;;7.55;;
56343;SDS011;42245;42.058;24.700;2023-05-07T06:10:44;10.27;;;7.75;;
56343;SDS011;42245;42.058;24.700;2023-05-07T06:13:10;9.40;;;7.20;;
56343;SDS011;42245;42.058;24.700;2023-05-07T06:15:36;10.55;;;7.25;;
56343;SDS011;42245;42.058;24.700;2023-05-07T06:18:01;10.82;;;7.20;;
56343;SDS011;42245;42.058;24.700;2023-05-07T06:20:27;9.65;;;7.22;;
56343;SDS011;42245;42.058;24.700;2023-05-07T06:22:52;9.95;;;7.07;;
56343;SDS011;42245;42.058;24.700;2023-05-07T06:25:18;10.00;;;6.82;;
56343;SDS011;42245;42.058;24.700;2023-05-07T06:27:43;9.30;;;6.95;;
56343;SDS011;42245;42.058;24.700;2023-05-07T06:30:08;8.15;;;6.82;;
56343;SDS011;42245;42.058;24.700;2023-05-07T06:32:34;13.15;;;6.68;;
56343;SDS011;42245;42.058;24.700;2023-05-07T06:35:00;9.52;;;6.65;;
56343;SDS011;42245;42.058;24.700;2023-05-07T06:37:25;14.05;;;7.07;;
56343;SDS011;42245;42.058;24.700;2023-05-07T06:39:51;14.80;;;7.30;;
56343;SDS011;42245;42.058;24.700;2023-05-07T06:42:16;8.85;;;6.93;;
56343;SDS011;42245;42.058;24.700;2023-05-07T06:44:42;13.55;;;7.05;;
56343;SDS011;42245;42.058;24.700;2023-05-07T06:47:07;10.65;;;6.47;;
56343;SDS011;42245;42.058;24.700;2023-05-07T06:49:32;8.25;;;6.45;;
56343;SDS011;42245;42.058;24.700;2023-05-07T06:51:58;9.00;;;6.28;;
56343;SDS011;42245;42.058;24.700;2023-05-07T06:54:23;10.75;;;7.07;;
56343;SDS011;42245;42.058;24.700;2023-05-07T06:56:49;10.23;;;6.65;;
56343;SDS011;42245;42.058;24.700;2023-05-07T06:59:15;10.98;;;7.78;;
56343;SDS011;42245;42.058;24.700;2023-05-07T07:01:41;12.48;;;6.97;;
56343;SDS011;42245;42.058;24.700;2023-05-07T07:04:06;12.45;;;6.20;;
56343;SDS011;42245;42.058;24.700;2023-05-07T07:06:32;16.63;;;7.47;;
56343;SDS011;42245;42.058;24.700;2023-05-07T07:08:58;10.10;;;7.07;;
56343;SDS011;42245;42.058;24.700;2023-05-07T07:11:24;10.65;;;7.20;;
56343;SDS011;42245;42.058;24.700;2023-05-07T07:13:49;12.77;;;7.30;;
56343;SDS011;42245;42.058;24.700;2023-05-07T07:16:15;11.88;;;6.78;;
56343;SDS011;42245;42.058;24.700;2023-05-07T07:18:41;11.45;;;6.88;;
56343;SDS011;42245;42.058;24.700;2023-05-07T07:21:06;8.50;;;6.63;;
56343;SDS011;42245;42.058;24.700;2023-05-07T07:23:32;11.57;;;7.65;;
56343;SDS011;42245;42.058;24.700;2023-05-07T07:25:57;11.38;;;6.85;;
56343;SDS011;42245;42.058;24.700;2023-05-07T07:28:23;8.85;;;6.10;;
56343;SDS011;42245;42.058;24.700;2023-05-07T07:30:48;8.43;;;6.50;;
56343;SDS011;42245;42.058;24.700;2023-05-07T07:33:14;9.82;;;6.75;;
56343;SDS011;42245;42.058;24.700;2023-05-07T07:35:40;7.35;;;6.22;;
56343;SDS011;42245;42.058;24.700;2023-05-07T07:38:05;10.93;;;6.65;;
56343;SDS011;42245;42.058;24.700;2023-05-07T07:40:31;10.27;;;6.70;;
56343;SDS011;42245;42.058;24.700;2023-05-07T07:42:56;12.27;;;6.30;;
56343;SDS011;42245;42.058;24.700;2023-05-07T07:45:22;10.07;;;6.28;;
56343;SDS011;42245;42.058;24.700;2023-05-07T07:47:48;10.30;;;6.07;;
56343;SDS011;42245;42.058;24.700;2023-05-07T07:50:13;10.48;;;6.20;;
56343;SDS011;42245;42.058;24.700;2023-05-07T07:52:39;8.70;;;6.18;;
56343;SDS011;42245;42.058;24.700;2023-05-07T07:55:04;11.15;;;6.32;;
56343;SDS011;42245;42.058;24.700;2023-05-07T07:57:30;10.32;;;6.43;;
56343;SDS011;42245;42.058;24.700;2023-05-07T07:59:56;9.98;;;6.22;;
56343;SDS011;42245;42.058;24.700;2023-05-07T08:02:21;9.32;;;6.72;;
56343;SDS011;42245;42.058;24.700;2023-05-07T08:04:47;13.57;;;6.40;;
56343;SDS011;42245;42.058;24.700;2023-05-07T08:07:14;11.10;;;6.50;;
56343;SDS011;42245;42.058;24.700;2023-05-07T08:09:40;7.30;;;6.53;;
56343;SDS011;42245;42.058;24.700;2023-05-07T08:12:06;9.50;;;6.30;;
56343;SDS011;42245;42.058;24.700;2023-05-07T08:14:32;9.60;;;6.18;;
56343;SDS011;42245;42.058;24.700;2023-05-07T08:16:57;12.80;;;6.22;;
56343;SDS011;42245;42.058;24.700;2023-05-07T08:19:23;8.00;;;6.55;;
56343;SDS011;42245;42.058;24.700;2023-05-07T08:21:48;9.65;;;6.10;;
56343;SDS011;42245;42.058;24.700;2023-05-07T08:24:14;11.90;;;6.78;;
56343;SDS011;42245;42.058;24.700;2023-05-07T08:26:40;9.15;;;6.13;;
56343;SDS011;42245;42.058;24.700;2023-05-07T08:29:06;10.05;;;5.80;;
56343;SDS011;42245;42.058;24.700;2023-05-07T08:31:31;13.88;;;8.18;;
56343;SDS011;42245;42.058;24.700;2023-05-07T08:33:57;12.90;;;5.97;;
56343;SDS011;42245;42.058;24.700;2023-05-07T08:36:26;8.55;;;5.30;;
56343;SDS011;42245;42.058;24.700;2023-05-07T08:38:51;8.02;;;5.25;;
56343;SDS011;42245;42.058;24.700;2023-05-07T08:41:17;9.40;;;4.82;;
56343;SDS011;42245;42.058;24.700;2023-05-07T08:43:46;8.05;;;5.57;;
56343;SDS011;42245;42.058;24.700;2023-05-07T08:46:14;13.48;;;6.65;;
56343;SDS011;42245;42.058;24.700;2023-05-07T08:48:44;11.45;;;5.95;;
56343;SDS011;42245;42.058;24.700;2023-05-07T08:51:13;8.80;;;5.72;;
56343;SDS011;42245;42.058;24.700;2023-05-07T08:53:40;14.07;;;5.68;;
56343;SDS011;42245;42.058;24.700;2023-05-07T08:56:07;10.90;;;6.18;;
56343;SDS011;42245;42.058;24.700;2023-05-07T08:58:34;7.43;;;4.65;;
56343;SDS011;42245;42.058;24.700;2023-05-07T09:01:00;5.72;;;4.30;;
56343;SDS011;42245;42.058;24.700;2023-05-07T09:03:28;9.15;;;4.80;;
56343;SDS011;42245;42.058;24.700;2023-05-07T09:05:55;8.27;;;4.47;;
56343;SDS011;42245;42.058;24.700;2023-05-07T09:08:24;7.05;;;4.30;;
56343;SDS011;42245;42.058;24.700;2023-05-07T09:10:50;4.63;;;4.07;;
56343;SDS011;42245;42.058;24.700;2023-05-07T09:13:15;8.25;;;4.13;;
56343;SDS011;42245;42.058;24.700;2023-05-07T09:15:43;10.88;;;4.53;;
56343;SDS011;42245;42.058;24.700;2023-05-07T09:18:08;4.63;;;3.97;;
56343;SDS011;42245;42.058;24.700;2023-05-07T09:20:33;8.48;;;4.20;;
56343;SDS011;42245;42.058;24.700;2023-05-07T09:23:01;6.60;;;3.92;;
56343;SDS011;42245;42.058;24.700;2023-05-07T09:25:28;8.75;;;3.97;;
56343;SDS011;42245;42.058;24.700;2023-05-07T09:27:54;5.00;;;3.50;;
56343;SDS011;42245;42.058;24.700;2023-05-07T09:30:20;7.25;;;4.32;;
56343;SDS011;42245;42.058;24.700;2023-05-07T09:32:45;7.03;;;4.00;;
56343;SDS011;42245;42.058;24.700;2023-05-07T09:35:14;6.18;;;3.63;;
56343;SDS011;42245;42.058;24.700;2023-05-07T09:37:41;6.40;;;3.80;;
56343;SDS011;42245;42.058;24.700;2023-05-07T09:40:07;6.18;;;3.42;;
56343;SDS011;42245;42.058;24.700;2023-05-07T09:42:34;6.07;;;3.10;;
56343;SDS011;42245;42.058;24.700;2023-05-07T09:44:59;7.88;;;3.70;;
56343;SDS011;42245;42.058;24.700;2023-05-07T09:47:25;7.65;;;3.47;;
56343;SDS011;42245;42.058;24.700;2023-05-07T09:49:56;7.72;;;3.85;;
56343;SDS011;42245;42.058;24.700;2023-05-07T09:52:22;8.27;;;3.90;;
56343;SDS011;42245;42.058;24.700;2023-05-07T09:54:48;6.70;;;3.33;;
56343;SDS011;42245;42.058;24.700;2023-05-07T09:57:15;6.40;;;3.90;;
56343;SDS011;42245;42.058;24.700;2023-05-07T09:59:42;7.75;;;4.45;;
56343;SDS011;42245;42.058;24.700;2023-05-07T10:02:08;4.85;;;3.05;;
56343;SDS011;42245;42.058;24.700;2023-05-07T10:04:35;5.82;;;3.30;;
56343;SDS011;42245;42.058;24.700;2023-05-07T10:07:14;6.18;;;2.65;;
56343;SDS011;42245;42.058;24.700;2023-05-07T10:09:39;12.77;;;5.90;;
56343;SDS011;42245;42.058;24.700;2023-05-07T10:12:07;4.32;;;2.92;;
56343;SDS011;42245;42.058;24.700;2023-05-07T10:14:32;5.88;;;3.78;;
56343;SDS011;42245;42.058;24.700;2023-05-07T10:16:58;6.85;;;4.47;;
56343;SDS011;42245;42.058;24.700;2023-05-07T10:19:24;4.40;;;3.00;;
56343;SDS011;42245;42.058;24.700;2023-05-07T10:21:58;6.18;;;3.30;;
56343;SDS011;42245;42.058;24.700;2023-05-07T10:24:29;3.47;;;2.97;;
56343;SDS011;42245;42.058;24.700;2023-05-07T10:26:59;5.57;;;3.20;;
56343;SDS011;42245;42.058;24.700;2023-05-07T10:32:20;5.40;;;3.42;;
56343;SDS011;42245;42.058;24.700;2023-05-07T10:34:50;6.65;;;3.67;;
56343;SDS011;42245;42.058;24.700;2023-05-07T10:37:21;6.47;;;4.20;;
56343;SDS011;42245;42.058;24.700;2023-05-07T10:39:47;6.07;;;3.33;;
56343;SDS011;42245;42.058;24.700;2023-05-07T10:42:13;5.07;;;3.20;;
56343;SDS011;42245;42.058;24.700;2023-05-07T10:44:39;5.45;;;3.30;;
56343;SDS011;42245;42.058;24.700;2023-05-07T10:49:31;5.40;;;3.20;;
56343;SDS011;42245;42.058;24.700;2023-05-07T10:54:42;3.80;;;3.10;;
56343;SDS011;42245;42.058;24.700;2023-05-07T11:00:03;14.75;;;3.45;;
56343;SDS011;42245;42.058;24.700;2023-05-07T11:05:29;4.43;;;2.88;;
56343;SDS011;42245;42.058;24.700;2023-05-07T11:07:56;5.80;;;2.75;;
56343;SDS011;42245;42.058;24.700;2023-05-07T11:10:22;5.78;;;3.35;;
56343;SDS011;42245;42.058;24.700;2023-05-07T11:15:13;4.15;;;3.25;;
56343;SDS011;42245;42.058;24.700;2023-05-07T11:17:55;4.78;;;2.92;;
56343;SDS011;42245;42.058;24.700;2023-05-07T11:20:43;8.70;;;3.00;;
56343;SDS011;42245;42.058;24.700;2023-05-07T11:23:54;7.60;;;3.40;;
56343;SDS011;42245;42.058;24.700;2023-05-07T11:28:28;6.05;;;3.00;;
56343;SDS011;42245;42.058;24.700;2023-05-07T11:30:53;7.88;;;3.00;;
56343;SDS011;42245;42.058;24.700;2023-05-07T11:33:19;4.68;;;2.70;;
56343;SDS011;42245;42.058;24.700;2023-05-07T11:35:45;5.05;;;3.25;;
56343;SDS011;42245;42.058;24.700;2023-05-07T11:38:10;3.83;;;3.03;;
56343;SDS011;42245;42.058;24.700;2023-05-07T11:40:53;4.38;;;2.83;;
56343;SDS011;42245;42.058;24.700;2023-05-07T11:43:19;5.35;;;2.90;;
56343;SDS011;42245;42.058;24.700;2023-05-07T11:45:45;4.05;;;2.90;;
56343;SDS011;42245;42.058;24.700;2023-05-07T11:48:12;4.65;;;2.92;;
56343;SDS011;42245;42.058;24.700;2023-05-07T11:53:40;6.07;;;3.20;;
56343;SDS011;42245;42.058;24.700;2023-05-07T11:56:07;4.82;;;2.80;;
56343;SDS011;42245;42.058;24.700;2023-05-07T11:58:34;5.07;;;3.20;;
56343;SDS011;42245;42.058;24.700;2023-05-07T12:00:59;4.60;;;2.90;;
56343;SDS011;42245;42.058;24.700;2023-05-07T12:03:25;6.20;;;2.78;;
56343;SDS011;42245;42.058;24.700;2023-05-07T12:05:56;5.32;;;2.92;;
56343;SDS011;42245;42.058;24.700;2023-05-07T12:08:21;4.55;;;2.80;;
56343;SDS011;42245;42.058;24.700;2023-05-07T12:10:48;3.15;;;2.75;;
56343;SDS011;42245;42.058;24.700;2023-05-07T12:13:20;8.77;;;2.80;;
56343;SDS011;42245;42.058;24.700;2023-05-07T12:15:46;4.25;;;2.80;;
56343;SDS011;42245;42.058;24.700;2023-05-07T12:18:11;5.30;;;3.20;;
56343;SDS011;42245;42.058;24.700;2023-05-07T12:20:37;7.65;;;3.33;;
56343;SDS011;42245;42.058;24.700;2023-05-07T12:23:03;4.15;;;2.95;;
56343;SDS011;42245;42.058;24.700;2023-05-07T12:25:32;4.03;;;3.13;;
56343;SDS011;42245;42.058;24.700;2023-05-07T12:28:02;4.65;;;3.10;;
56343;SDS011;42245;42.058;24.700;2023-05-07T12:30:29;4.57;;;3.13;;
56343;SDS011;42245;42.058;24.700;2023-05-07T12:32:55;5.13;;;2.80;;
56343;SDS011;42245;42.058;24.700;2023-05-07T12:35:30;5.13;;;2.88;;
56343;SDS011;42245;42.058;24.700;2023-05-07T12:37:59;5.80;;;2.72;;
56343;SDS011;42245;42.058;24.700;2023-05-07T12:40:35;3.83;;;2.85;;
56343;SDS011;42245;42.058;24.700;2023-05-07T12:43:02;4.15;;;2.88;;
56343;SDS011;42245;42.058;24.700;2023-05-07T12:45:27;5.00;;;2.70;;
56343;SDS011;42245;42.058;24.700;2023-05-07T12:47:53;4.38;;;2.70;;
56343;SDS011;42245;42.058;24.700;2023-05-07T12:50:18;4.53;;;3.00;;
56343;SDS011;42245;42.058;24.700;2023-05-07T12:52:46;3.50;;;2.70;;
56343;SDS011;42245;42.058;24.700;2023-05-07T12:55:15;5.80;;;2.80;;
56343;SDS011;42245;42.058;24.700;2023-05-07T12:57:50;6.28;;;2.80;;
56343;SDS011;42245;42.058;24.700;2023-05-07T13:00:16;6.28;;;2.90;;
56343;SDS011;42245;42.058;24.700;2023-05-07T13:02:43;4.93;;;2.80;;
56343;SDS011;42245;42.058;24.700;2023-05-07T13:05:11;2.92;;;2.55;;
56343;SDS011;42245;42.058;24.700;2023-05-07T13:07:37;4.63;;;2.78;;
56343;SDS011;42245;42.058;24.700;2023-05-07T13:10:03;5.30;;;2.55;;
56343;SDS011;42245;42.058;24.700;2023-05-07T13:12:29;4.78;;;3.05;;
56343;SDS011;42245;42.058;24.700;2023-05-07T13:14:57;5.82;;;2.90;;
56343;SDS011;42245;42.058;24.700;2023-05-07T13:17:24;4.53;;;2.85;;
56343;SDS011;42245;42.058;24.700;2023-05-07T13:19:49;4.35;;;2.80;;
56343;SDS011;42245;42.058;24.700;2023-05-07T13:22:15;4.40;;;2.97;;
56343;SDS011;42245;42.058;24.700;2023-05-07T13:24:40;3.38;;;2.88;;
56343;SDS011;42245;42.058;24.700;2023-05-07T13:27:07;4.93;;;3.00;;
56343;SDS011;42245;42.058;24.700;2023-05-07T13:29:32;4.82;;;2.72;;
56343;SDS011;42245;42.058;24.700;2023-05-07T13:31:58;4.68;;;3.00;;
56343;SDS011;42245;42.058;24.700;2023-05-07T13:34:24;5.85;;;3.13;;
56343;SDS011;42245;42.058;24.700;2023-05-07T13:36:49;5.03;;;2.80;;
56343;SDS011;42245;42.058;24.700;2023-05-07T13:39:15;6.38;;;2.85;;
56343;SDS011;42245;42.058;24.700;2023-05-07T13:41:40;3.90;;;2.80;;
56343;SDS011;42245;42.058;24.700;2023-05-07T13:44:06;5.53;;;2.92;;
56343;SDS011;42245;42.058;24.700;2023-05-07T13:46:31;5.95;;;3.10;;
56343;SDS011;42245;42.058;24.700;2023-05-07T13:48:56;6.63;;;3.03;;
56343;SDS011;42245;42.058;24.700;2023-05-07T13:51:22;3.50;;;2.90;;
56343;SDS011;42245;42.058;24.700;2023-05-07T13:53:48;3.45;;;2.63;;
56343;SDS011;42245;42.058;24.700;2023-05-07T13:56:13;4.50;;;2.70;;
56343;SDS011;42245;42.058;24.700;2023-05-07T13:58:39;5.45;;;3.08;;
56343;SDS011;42245;42.058;24.700;2023-05-07T14:01:05;7.97;;;3.10;;
56343;SDS011;42245;42.058;24.700;2023-05-07T14:03:30;6.43;;;3.10;;
56343;SDS011;42245;42.058;24.700;2023-05-07T14:05:57;3.17;;;2.88;;
56343;SDS011;42245;42.058;24.700;2023-05-07T14:08:24;4.70;;;2.63;;
56343;SDS011;42245;42.058;24.700;2023-05-07T14:10:50;5.93;;;2.92;;
56343;SDS011;42245;42.058;24.700;2023-05-07T14:13:16;6.50;;;3.03;;
56343;SDS011;42245;42.058;24.700;2023-05-07T14:15:41;5.78;;;2.80;;
56343;SDS011;42245;42.058;24.700;2023-05-07T14:18:11;6.85;;;2.90;;
56343;SDS011;42245;42.058;24.700;2023-05-07T14:20:36;5.72;;;2.80;;
56343;SDS011;42245;42.058;24.700;2023-05-07T14:23:02;7.22;;;3.47;;
56343;SDS011;42245;42.058;24.700;2023-05-07T14:25:28;3.25;;;2.95;;
56343;SDS011;42245;42.058;24.700;2023-05-07T14:27:53;4.38;;;2.80;;
56343;SDS011;42245;42.058;24.700;2023-05-07T14:30:19;5.13;;;3.17;;
56343;SDS011;42245;42.058;24.700;2023-05-07T14:32:44;6.40;;;2.90;;
56343;SDS011;42245;42.058;24.700;2023-05-07T14:35:10;3.85;;;2.83;;
56343;SDS011;42245;42.058;24.700;2023-05-07T14:37:35;5.85;;;2.65;;
56343;SDS011;42245;42.058;24.700;2023-05-07T14:40:00;4.88;;;2.40;;
56343;SDS011;42245;42.058;24.700;2023-05-07T14:42:26;5.47;;;2.60;;
56343;SDS011;42245;42.058;24.700;2023-05-07T14:44:51;5.03;;;3.15;;